| time (UTC) | temp C | wind direction | speed KPH | gust KPH | rain 1hr cm | rain 24hr cm | rain mn cm | humidity % | barometer mb |
| 20260507075904 | 3 | 223 | 0.0 | 0.0 | 0.00 | 0.00 | 0.00 | 64 | 1013.4 |
| 20260507075403 | 3 | 223 | 0.0 | 0.0 | 0.00 | 0.00 | 0.00 | 64 | 1013.4 |
| 20260507074903 | 3 | 223 | 0.0 | 0.0 | 0.00 | 0.00 | 0.00 | 63 | 1013.4 |
| 20260507074403 | 4 | 223 | 0.0 | 0.0 | 0.00 | 0.00 | 0.00 | 63 | 1013.3 |
| 20260507073904 | 4 | 223 | 0.0 | 0.0 | 0.00 | 0.00 | 0.00 | 63 | 1013.3 |
| 20260507073404 | 4 | 223 | 0.0 | 0.0 | 0.00 | 0.00 | 0.00 | 62 | 1013.3 |
| 20260507072904 | 3 | 223 | 0.0 | 4.8 | 0.00 | 0.00 | 0.00 | 62 | 1013.3 |
| 20260507072404 | 3 | 216 | 0.0 | 0.0 | 0.00 | 0.00 | 0.00 | 63 | 1013.3 |
| 20260507071903 | 3 | 216 | 0.0 | 0.0 | 0.00 | 0.00 | 0.00 | 63 | 1013.2 |
| 20260507071404 | 3 | 216 | 0.0 | 0.0 | 0.00 | 0.00 | 0.00 | 61 | 1013.2 |
| 20260507070904 | 3 | 216 | 0.0 | 0.0 | 0.00 | 0.00 | 0.00 | 61 | 1013.1 |
| 20260507070404 | 4 | 216 | 0.0 | 0.0 | 0.00 | 0.00 | 0.00 | 60 | 1013.1 |
| 20260507065904 | 4 | 216 | 0.0 | 0.0 | 0.00 | 0.00 | 0.00 | 60 | 1013.1 |
| 20260507065403 | 4 | 216 | 0.0 | 0.0 | 0.00 | 0.00 | 0.00 | 60 | 1013.0 |
| 20260507064903 | 4 | 216 | 0.0 | 0.0 | 0.00 | 0.00 | 0.00 | 59 | 1013.0 |
| 20260507064404 | 4 | 216 | 0.0 | 0.0 | 0.00 | 0.00 | 0.00 | 58 | 1013.0 |
| 20260507063904 | 4 | 216 | 0.0 | 0.0 | 0.00 | 0.00 | 0.00 | 58 | 1012.9 |
| 20260507063404 | 4 | 216 | 0.0 | 0.0 | 0.00 | 0.00 | 0.00 | 57 | 1012.9 |
| 20260507062904 | 4 | 216 | 0.0 | 0.0 | 0.00 | 0.00 | 0.00 | 56 | 1012.8 |
| 20260507062404 | 4 | 216 | 0.0 | 0.0 | 0.00 | 0.00 | 0.00 | 56 | 1012.8 |
| 20260507061904 | 4 | 216 | 0.0 | 0.0 | 0.00 | 0.00 | 0.00 | 56 | 1012.9 |
| 20260507061403 | 4 | 216 | 0.0 | 0.0 | 0.00 | 0.00 | 0.00 | 55 | 1012.8 |
| 20260507060903 | 4 | 216 | 0.0 | 0.0 | 0.00 | 0.00 | 0.00 | 55 | 1012.7 |
| 20260507060403 | 5 | 216 | 0.0 | 0.0 | 0.00 | 0.00 | 0.00 | 54 | 1012.6 |
| 20260507055404 | 5 | 216 | 0.0 | 0.0 | 0.00 | 0.00 | 0.00 | 53 | 1012.7 |
| 20260507054403 | 5 | 216 | 0.0 | 0.0 | 0.00 | 0.00 | 0.00 | 52 | 1012.5 |
| 20260507053404 | 5 | 216 | 0.0 | 0.0 | 0.00 | 0.00 | 0.00 | 51 | 1012.5 |
| 20260507052904 | 5 | 216 | 0.0 | 0.0 | 0.00 | 0.00 | 0.00 | 50 | 1012.5 |
| 20260507051904 | 5 | 216 | 0.0 | 0.0 | 0.00 | 0.00 | 0.00 | 49 | 1012.4 |
| 20260507051404 | 5 | 216 | 0.0 | 0.0 | 0.00 | 0.00 | 0.00 | 49 | 1012.4 |
| 20260507050904 | 5 | 216 | 0.0 | 0.0 | 0.00 | 0.00 | 0.00 | 49 | 1012.4 |
| 20260507050404 | 5 | 216 | 0.0 | 0.0 | 0.00 | 0.00 | 0.00 | 48 | 1012.4 |
| 20260507045903 | 5 | 216 | 0.0 | 0.0 | 0.00 | 0.00 | 0.00 | 48 | 1012.4 |
| 20260507045403 | 6 | 216 | 0.0 | 0.0 | 0.00 | 0.00 | 0.00 | 47 | 1012.4 |
| 20260507044904 | 6 | 216 | 0.0 | 0.0 | 0.00 | 0.00 | 0.00 | 47 | 1012.4 |
| 20260507044403 | 6 | 216 | 0.0 | 0.0 | 0.00 | 0.00 | 0.00 | 47 | 1012.3 |
| 20260507043904 | 6 | 216 | 0.0 | 0.0 | 0.00 | 0.00 | 0.00 | 47 | 1012.3 |
| 20260507043403 | 6 | 216 | 0.0 | 0.0 | 0.00 | 0.00 | 0.00 | 46 | 1012.3 |
| 20260507042904 | 6 | 216 | 0.0 | 0.0 | 0.00 | 0.00 | 0.00 | 46 | 1012.2 |
| 20260507042403 | 6 | 216 | 0.0 | 0.0 | 0.00 | 0.00 | 0.00 | 46 | 1012.2 |
| 20260507041904 | 6 | 216 | 0.0 | 0.0 | 0.00 | 0.00 | 0.00 | 45 | 1012.2 |
| 20260507041404 | 6 | 216 | 0.0 | 0.0 | 0.00 | 0.00 | 0.00 | 45 | 1012.2 |
| 20260507040904 | 6 | 216 | 0.0 | 0.0 | 0.00 | 0.00 | 0.00 | 46 | 1012.2 |
| 20260507035904 | 6 | 216 | 0.0 | 0.0 | 0.00 | 0.00 | 0.00 | 45 | 1012.2 |
| 20260507035403 | 6 | 216 | 0.0 | 0.0 | 0.00 | 0.00 | 0.00 | 45 | 1012.2 |
| 20260507034903 | 6 | 216 | 0.0 | 1.6 | 0.00 | 0.00 | 0.00 | 45 | 1012.2 |
| 20260507034404 | 6 | 299 | 0.0 | 0.0 | 0.00 | 0.00 | 0.00 | 44 | 1012.2 |
| 20260507033904 | 6 | 299 | 1.6 | 9.7 | 0.00 | 0.00 | 0.00 | 43 | 1012.1 |
| 20260507033403 | 6 | 287 | 3.2 | 14.5 | 0.00 | 0.00 | 0.00 | 43 | 1012.1 |
| 20260507032904 | 6 | 307 | 4.8 | 11.3 | 0.00 | 0.00 | 0.00 | 43 | 1012.1 |
| 20260507032404 | 6 | 233 | 4.8 | 9.7 | 0.00 | 0.00 | 0.00 | 43 | 1012.1 |
| 20260507031904 | 6 | 206 | 1.6 | 8.0 | 0.00 | 0.00 | 0.00 | 42 | 1012.0 |
| 20260507031404 | 6 | 258 | 0.0 | 9.7 | 0.00 | 0.00 | 0.00 | 42 | 1011.9 |
| 20260507030404 | 7 | 189 | 0.0 | 0.0 | 0.00 | 0.00 | 0.00 | 41 | 1011.8 |
| 20260507025404 | 7 | 296 | 4.8 | 11.3 | 0.00 | 0.00 | 0.00 | 40 | 1011.8 |
| 20260507024903 | 7 | 245 | 6.4 | 14.5 | 0.00 | 0.00 | 0.00 | 40 | 1011.8 |
| 20260507024403 | 7 | 227 | 1.6 | 9.7 | 0.00 | 0.00 | 0.00 | 40 | 1011.7 |
| 20260507023903 | 7 | 218 | 1.6 | 11.3 | 0.00 | 0.00 | 0.00 | 40 | 1011.6 |
| 20260507023403 | 7 | 224 | 0.0 | 3.2 | 0.00 | 0.00 | 0.00 | 40 | 1011.6 |
| 20260507022904 | 7 | 257 | 0.0 | 0.0 | 0.00 | 0.00 | 0.00 | 42 | 1011.6 |
| 20260507021903 | 7 | 250 | 4.8 | 12.9 | 0.00 | 0.00 | 0.00 | 41 | 1011.6 |
| 20260507020404 | 7 | 173 | 0.0 | 4.8 | 0.00 | 0.00 | 0.00 | 42 | 1011.6 |
| 20260507015903 | 7 | 157 | 0.0 | 1.6 | 0.00 | 0.00 | 0.00 | 42 | 1011.6 |
| 20260507015403 | 7 | 157 | 0.0 | 3.2 | 0.00 | 0.00 | 0.00 | 43 | 1011.6 |
| 20260507014903 | 7 | 179 | 0.0 | 11.3 | 0.00 | 0.00 | 0.00 | 43 | 1011.6 |
| 20260507014403 | 7 | 189 | 0.0 | 8.0 | 0.00 | 0.00 | 0.00 | 44 | 1011.6 |
| 20260507013904 | 6 | 272 | 1.6 | 11.3 | 0.00 | 0.00 | 0.00 | 42 | 1011.5 |
| 20260507013403 | 6 | 172 | 0.0 | 4.8 | 0.00 | 0.00 | 0.00 | 44 | 1011.6 |
| 20260507012903 | 6 | 210 | 1.6 | 11.3 | 0.00 | 0.00 | 0.00 | 43 | 1011.5 |
| 20260507011903 | 7 | 198 | 4.8 | 11.3 | 0.00 | 0.00 | 0.00 | 43 | 1011.5 |
| 20260507011403 | 7 | 203 | 0.0 | 8.0 | 0.00 | 0.00 | 0.00 | 42 | 1011.5 |
| 20260507010904 | 7 | 246 | 4.8 | 11.3 | 0.00 | 0.00 | 0.00 | 42 | 1011.5 |
| 20260507010404 | 7 | 252 | 1.6 | 14.5 | 0.00 | 0.00 | 0.00 | 42 | 1011.5 |
| 20260507005904 | 7 | 201 | 1.6 | 9.7 | 0.00 | 0.00 | 0.00 | 41 | 1011.4 |
| 20260507005404 | 7 | 225 | 8.0 | 12.9 | 0.00 | 0.00 | 0.00 | 42 | 1011.4 |
| 20260507004903 | 7 | 258 | 4.8 | 12.9 | 0.00 | 0.00 | 0.00 | 42 | 1011.3 |
| 20260507004404 | 7 | 169 | 0.0 | 4.8 | 0.00 | 0.00 | 0.00 | 42 | 1011.3 |
| 20260507003903 | 7 | 211 | 0.0 | 8.0 | 0.00 | 0.00 | 0.00 | 42 | 1011.4 |
| 20260507003404 | 7 | 234 | 1.6 | 11.3 | 0.00 | 0.00 | 0.00 | 44 | 1011.3 |
| 20260507002903 | 7 | 177 | 0.0 | 8.0 | 0.00 | 0.00 | 0.00 | 43 | 1011.3 |
| 20260507002403 | 7 | 198 | 1.6 | 9.7 | 0.00 | 0.00 | 0.00 | 42 | 1011.3 |
| 20260507001904 | 7 | 205 | 0.0 | 4.8 | 0.00 | 0.00 | 0.00 | 43 | 1011.3 |
| 20260507001403 | 7 | 244 | 1.6 | 14.5 | 0.00 | 0.00 | 0.00 | 43 | 1011.3 |
| 20260507000405 | 7 | 236 | 0.0 | 8.0 | 0.00 | 0.00 | 0.00 | 43 | 1011.3 |
| 20260506235904 | 7 | 235 | 1.6 | 8.0 | 0.00 | 0.00 | 0.00 | 43 | 1011.3 |
| 20260506235404 | 7 | 202 | 1.6 | 4.8 | 0.00 | 0.00 | 0.00 | 43 | 1011.3 |
| 20260506233404 | 7 | 237 | 1.6 | 11.3 | 0.00 | 0.00 | 0.00 | 44 | 1011.3 |
| 20260506232904 | 7 | 233 | 1.6 | 12.9 | 0.00 | 0.00 | 0.00 | 45 | 1011.2 |
| 20260506232404 | 7 | 218 | 1.6 | 4.8 | 0.00 | 0.00 | 0.00 | 44 | 1011.1 |
| 20260506231904 | 7 | 237 | 4.8 | 9.7 | 0.00 | 0.00 | 0.00 | 43 | 1011.2 |
| 20260506231404 | 7 | 273 | 3.2 | 12.9 | 0.00 | 0.00 | 0.00 | 43 | 1011.3 |
| 20260506230904 | 7 | 288 | 3.2 | 14.5 | 0.00 | 0.00 | 0.00 | 44 | 1011.2 |
| 20260506230403 | 7 | 260 | 4.8 | 12.9 | 0.00 | 0.00 | 0.00 | 43 | 1011.2 |
| 20260506225903 | 7 | 228 | 4.8 | 16.1 | 0.00 | 0.00 | 0.00 | 42 | 1011.2 |
| 20260506225403 | 7 | 237 | 3.2 | 12.9 | 0.00 | 0.00 | 0.00 | 44 | 1011.2 |
| 20260506224904 | 7 | 234 | 1.6 | 3.2 | 0.00 | 0.00 | 0.00 | 44 | 1011.2 |
| 20260506223904 | 7 | 189 | 0.0 | 1.6 | 0.00 | 0.00 | 0.00 | 44 | 1011.1 |
| 20260506223403 | 7 | 157 | 0.0 | 8.0 | 0.00 | 0.00 | 0.00 | 46 | 1011.2 |
| 20260506222904 | 7 | 240 | 1.6 | 11.3 | 0.00 | 0.00 | 0.00 | 45 | 1011.2 |
| 20260506222404 | 7 | 167 | 0.0 | 4.8 | 0.00 | 0.00 | 0.00 | 43 | 1011.2 |
| 20260506221904 | 7 | 230 | 3.2 | 11.3 | 0.00 | 0.00 | 0.00 | 45 | 1011.2 |
| 20260506221403 | 7 | 263 | 3.2 | 12.9 | 0.00 | 0.00 | 0.00 | 46 | 1011.2 |
| 20260506220904 | 7 | 299 | 3.2 | 8.0 | 0.00 | 0.00 | 0.00 | 45 | 1011.2 |
| 20260506220403 | 7 | 209 | 3.2 | 11.3 | 0.00 | 0.00 | 0.00 | 45 | 1011.1 |
| 20260506215903 | 7 | 203 | 3.2 | 8.0 | 0.00 | 0.00 | 0.00 | 47 | 1011.2 |
| 20260506215403 | 6 | 220 | 1.6 | 9.7 | 0.00 | 0.00 | 0.00 | 48 | 1011.3 |
| 20260506214904 | 6 | 286 | 6.4 | 12.9 | 0.00 | 0.00 | 0.00 | 49 | 1011.2 |
| 20260506214404 | 6 | 280 | 4.8 | 12.9 | 0.00 | 0.00 | 0.00 | 50 | 1011.2 |
| 20260506213904 | 6 | 248 | 1.6 | 11.3 | 0.00 | 0.00 | 0.00 | 50 | 1011.2 |
| 20260506213404 | 6 | 292 | 3.2 | 11.3 | 0.00 | 0.00 | 0.00 | 51 | 1011.2 |
| 20260506212903 | 5 | 228 | 1.6 | 8.0 | 0.00 | 0.00 | 0.00 | 51 | 1011.2 |
| 20260506212403 | 5 | 178 | 1.6 | 11.3 | 0.00 | 0.00 | 0.00 | 51 | 1011.3 |
| 20260506211903 | 5 | 261 | 4.8 | 16.1 | 0.00 | 0.00 | 0.00 | 50 | 1011.2 |
| 20260506211403 | 6 | 271 | 6.4 | 12.9 | 0.00 | 0.00 | 0.00 | 50 | 1011.2 |
| 20260506210904 | 6 | 224 | 1.6 | 12.9 | 0.00 | 0.00 | 0.00 | 52 | 1011.1 |
| 20260506210404 | 5 | 258 | 6.4 | 19.3 | 0.00 | 0.00 | 0.00 | 50 | 1011.1 |
| 20260506205904 | 6 | 256 | 4.8 | 12.9 | 0.00 | 0.00 | 0.00 | 50 | 1011.1 |
| 20260506205404 | 5 | 209 | 4.8 | 14.5 | 0.00 | 0.00 | 0.00 | 55 | 1011.1 |
| 20260506204904 | 5 | 222 | 4.8 | 11.3 | 0.00 | 0.00 | 0.00 | 54 | 1011.0 |
| 20260506204403 | 5 | 207 | 4.8 | 9.7 | 0.00 | 0.00 | 0.00 | 53 | 1011.1 |
| 20260506203904 | 5 | 199 | 1.6 | 9.7 | 0.00 | 0.00 | 0.00 | 57 | 1011.1 |
| 20260506203404 | 5 | 228 | 1.6 | 11.3 | 0.00 | 0.00 | 0.00 | 57 | 1011.1 |
| 20260506202903 | 5 | 240 | 8.0 | 12.9 | 0.00 | 0.00 | 0.00 | 57 | 1011.2 |
| 20260506202404 | 5 | 178 | 1.6 | 14.5 | 0.00 | 0.00 | 0.00 | 59 | 1011.1 |
| 20260506201903 | 5 | 205 | 3.2 | 12.9 | 0.00 | 0.00 | 0.00 | 58 | 1011.1 |
| 20260506201403 | 5 | 282 | 4.8 | 11.3 | 0.00 | 0.00 | 0.00 | 60 | 1011.1 |
| 20260506200404 | 5 | 277 | 3.2 | 9.7 | 0.00 | 0.00 | 0.00 | 61 | 1011.1 |
| 20260506195404 | 4 | 246 | 4.8 | 14.5 | 0.00 | 0.00 | 0.00 | 63 | 1011.0 |
| 20260506194904 | 4 | 272 | 1.6 | 9.7 | 0.00 | 0.00 | 0.00 | 66 | 1011.1 |
| 20260506194404 | 4 | 240 | 3.2 | 12.9 | 0.00 | 0.00 | 0.00 | 66 | 1011.0 |
| 20260506193903 | 4 | 182 | 3.2 | 12.9 | 0.00 | 0.00 | 0.00 | 66 | 1011.0 |
| 20260506193404 | 4 | 261 | 4.8 | 19.3 | 0.00 | 0.00 | 0.00 | 69 | 1010.9 |
| 20260506192903 | 4 | 250 | 4.8 | 11.3 | 0.00 | 0.00 | 0.00 | 69 | 1010.9 |
| 20260506192404 | 3 | 241 | 6.4 | 12.9 | 0.00 | 0.00 | 0.00 | 69 | 1010.9 |
| 20260506191904 | 3 | 277 | 8.0 | 12.9 | 0.00 | 0.00 | 0.00 | 70 | 1010.9 |
| 20260506191404 | 3 | 234 | 4.8 | 9.7 | 0.00 | 0.00 | 0.00 | 72 | 1010.9 |
| 20260506190904 | 3 | 220 | 4.8 | 11.3 | 0.00 | 0.00 | 0.00 | 75 | 1010.9 |
| 20260506185904 | 3 | 216 | 0.0 | 3.2 | 0.00 | 0.00 | 0.00 | 78 | 1010.8 |
| 20260506185403 | 3 | 204 | 3.2 | 4.8 | 0.00 | 0.00 | 0.00 | 77 | 1010.8 |
| 20260506184904 | 3 | 230 | 1.6 | 4.8 | 0.00 | 0.00 | 0.00 | 80 | 1010.7 |
| 20260506184404 | 3 | 202 | 3.2 | 8.0 | 0.00 | 0.00 | 0.00 | 80 | 1010.7 |
| 20260506183903 | 3 | 202 | 3.2 | 8.0 | 0.00 | 0.00 | 0.00 | 80 | 1010.7 |
| 20260506183403 | 3 | 209 | 3.2 | 4.8 | 0.00 | 0.00 | 0.00 | 81 | 1010.7 |
| 20260506182403 | 3 | 199 | 0.0 | 4.8 | 0.00 | 0.00 | 0.00 | 82 | 1010.7 |
| 20260506181904 | 3 | 217 | 3.2 | 8.0 | 0.00 | 0.00 | 0.00 | 83 | 1010.6 |
| 20260506181420 | 3 | 208 | 1.6 | 9.7 | 0.00 | 0.00 | 0.00 | 83 | 1010.6 |
| 20260506180904 | 3 | 215 | 0.0 | 11.3 | 0.00 | 0.00 | 0.00 | 84 | 1010.6 |
| 20260506180404 | 2 | 246 | 4.8 | 9.7 | 0.00 | 0.00 | 0.00 | 83 | 1010.6 |
| 20260506175904 | 2 | 211 | 0.0 | 16.1 | 0.00 | 0.00 | 0.00 | 84 | 1010.5 |
| 20260506175404 | 2 | 270 | 3.2 | 9.7 | 0.00 | 0.00 | 0.00 | 84 | 1010.5 |
| 20260506174903 | 2 | 244 | 3.2 | 9.7 | 0.00 | 0.00 | 0.00 | 85 | 1010.4 |
| 20260506174404 | 2 | 189 | 0.0 | 4.8 | 0.00 | 0.00 | 0.00 | 86 | 1010.4 |
| 20260506173904 | 2 | 222 | 3.2 | 9.7 | 0.00 | 0.00 | 0.00 | 85 | 1010.4 |
| 20260506173404 | 2 | 217 | 0.0 | 11.3 | 0.00 | 0.00 | 0.00 | 85 | 1010.3 |
| 20260506172904 | 2 | 262 | 3.2 | 11.3 | 0.00 | 0.00 | 0.00 | 86 | 1010.3 |
| 20260506172404 | 2 | 236 | 3.2 | 11.3 | 0.00 | 0.00 | 0.00 | 86 | 1010.3 |
| 20260506171904 | 2 | 199 | 0.0 | 3.2 | 0.00 | 0.00 | 0.00 | 86 | 1010.2 |
| 20260506171403 | 2 | 239 | 1.6 | 11.3 | 0.00 | 0.00 | 0.00 | 86 | 1010.2 |
| 20260506170904 | 2 | 189 | 0.0 | 0.0 | 0.00 | 0.00 | 0.00 | 86 | 1010.2 |
| 20260506170404 | 2 | 189 | 1.6 | 11.3 | 0.00 | 0.00 | 0.00 | 86 | 1010.1 |
| 20260506165404 | 2 | 214 | 3.2 | 11.3 | 0.00 | 0.00 | 0.00 | 86 | 1010.1 |
| 20260506164904 | 2 | 224 | 0.0 | 4.8 | 0.00 | 0.00 | 0.00 | 86 | 1010.1 |
| 20260506164404 | 2 | 220 | 3.2 | 8.0 | 0.00 | 0.00 | 0.00 | 86 | 1010.0 |
| 20260506163904 | 2 | 226 | 0.0 | 4.8 | 0.00 | 0.00 | 0.00 | 86 | 1010.0 |
| 20260506163403 | 2 | 216 | 1.6 | 8.0 | 0.00 | 0.00 | 0.00 | 86 | 1009.9 |
| 20260506162903 | 2 | 217 | 3.2 | 4.8 | 0.00 | 0.00 | 0.00 | 86 | 1009.9 |
| 20260506161904 | 2 | 260 | 1.6 | 3.2 | 0.00 | 0.00 | 0.00 | 86 | 1009.8 |
| 20260506161404 | 2 | 198 | 0.0 | 8.0 | 0.00 | 0.00 | 0.00 | 86 | 1009.8 |
| 20260506160903 | 2 | 222 | 1.6 | 4.8 | 0.00 | 0.00 | 0.00 | 86 | 1009.7 |
| 20260506160403 | 2 | 176 | 0.0 | 1.6 | 0.00 | 0.00 | 0.00 | 87 | 1009.6 |
| 20260506155903 | 2 | 206 | 1.6 | 9.7 | 0.00 | 0.00 | 0.00 | 87 | 1009.6 |
| 20260506155403 | 2 | 172 | 0.0 | 0.0 | 0.00 | 0.00 | 0.00 | 87 | 1009.6 |
| 20260506154404 | 2 | 172 | 1.6 | 4.8 | 0.00 | 0.00 | 0.00 | 87 | 1009.5 |
| 20260506153904 | 2 | 177 | 1.6 | 3.2 | 0.00 | 0.00 | 0.00 | 87 | 1009.5 |
| 20260506153404 | 2 | 213 | 0.0 | 0.0 | 0.00 | 0.00 | 0.00 | 87 | 1009.5 |
| 20260506152404 | 2 | 186 | 1.6 | 4.8 | 0.00 | 0.00 | 0.00 | 87 | 1009.3 |
| 20260506151404 | 2 | 210 | 3.2 | 9.7 | 0.00 | 0.00 | 0.00 | 86 | 1009.2 |
| 20260506150903 | 2 | 186 | 1.6 | 4.8 | 0.00 | 0.00 | 0.00 | 86 | 1009.1 |
| 20260506145904 | 2 | 221 | 4.8 | 12.9 | 0.00 | 0.00 | 0.00 | 86 | 1009.0 |
| 20260506145404 | 2 | 234 | 1.6 | 8.0 | 0.00 | 0.00 | 0.00 | 86 | 1009.0 |
| 20260506144903 | 2 | 230 | 1.6 | 8.0 | 0.00 | 0.00 | 0.00 | 86 | 1008.9 |
| 20260506144404 | 2 | 181 | 3.2 | 8.0 | 0.00 | 0.00 | 0.00 | 86 | 1008.8 |
| 20260506143903 | 2 | 212 | 1.6 | 3.2 | 0.00 | 0.00 | 0.00 | 86 | 1008.8 |
| 20260506143403 | 2 | 157 | 3.2 | 4.8 | 0.00 | 0.00 | 0.00 | 86 | 1008.8 |
| 20260506142904 | 2 | 267 | 0.0 | 4.8 | 0.00 | 0.00 | 0.00 | 87 | 1008.7 |
| 20260506142404 | 2 | 222 | 0.0 | 8.0 | 0.00 | 0.00 | 0.00 | 86 | 1008.7 |
| 20260506141904 | 2 | 216 | 0.0 | 0.0 | 0.00 | 0.00 | 0.00 | 86 | 1008.7 |
| 20260506141403 | 2 | 216 | 1.6 | 9.7 | 0.00 | 0.00 | 0.00 | 87 | 1008.6 |
| 20260506140903 | 2 | 182 | 0.0 | 3.2 | 0.00 | 0.00 | 0.00 | 87 | 1008.6 |
| 20260506140404 | 2 | 182 | 0.0 | 1.6 | 0.00 | 0.00 | 0.00 | 88 | 1008.6 |
| 20260506135904 | 2 | 193 | 1.6 | 3.2 | 0.00 | 0.00 | 0.00 | 88 | 1008.5 |
| 20260506135403 | 2 | 202 | 0.0 | 0.0 | 0.00 | 0.00 | 0.00 | 88 | 1008.5 |
| 20260506134904 | 2 | 207 | 0.0 | 3.2 | 0.00 | 0.00 | 0.00 | 88 | 1008.4 |
| 20260506134403 | 3 | 200 | 0.0 | 3.2 | 0.00 | 0.00 | 0.00 | 88 | 1008.4 |
| 20260506133904 | 3 | 200 | 0.0 | 0.0 | 0.00 | 0.00 | 0.00 | 88 | 1008.4 |
| 20260506133404 | 3 | 200 | 0.0 | 0.0 | 0.00 | 0.00 | 0.00 | 88 | 1008.3 |
| 20260506132904 | 3 | 200 | 0.0 | 8.0 | 0.00 | 0.00 | 0.00 | 88 | 1008.3 |
| 20260506132404 | 3 | 228 | 1.6 | 3.2 | 0.00 | 0.00 | 0.00 | 88 | 1008.2 |
| 20260506131904 | 3 | 219 | 0.0 | 0.0 | 0.00 | 0.00 | 0.00 | 88 | 1008.2 |
| 20260506131404 | 3 | 219 | 0.0 | 0.0 | 0.00 | 0.00 | 0.00 | 88 | 1008.0 |
| 20260506130904 | 3 | 219 | 0.0 | 0.0 | 0.00 | 0.00 | 0.00 | 88 | 1007.9 |
| 20260506130403 | 3 | 219 | 0.0 | 0.0 | 0.00 | 0.00 | 0.00 | 88 | 1007.9 |
| 20260506125904 | 3 | 219 | 0.0 | 0.0 | 0.00 | 0.00 | 0.00 | 88 | 1007.9 |
| 20260506125404 | 3 | 219 | 0.0 | 0.0 | 0.00 | 0.00 | 0.00 | 88 | 1007.8 |
| 20260506124903 | 3 | 219 | 0.0 | 0.0 | 0.00 | 0.00 | 0.00 | 88 | 1007.8 |
| 20260506124403 | 3 | 219 | 0.0 | 1.6 | 0.00 | 0.00 | 0.00 | 88 | 1007.6 |
| 20260506123904 | 3 | 224 | 0.0 | 1.6 | 0.00 | 0.00 | 0.00 | 88 | 1007.6 |
| 20260506123403 | 3 | 216 | 0.0 | 0.0 | 0.00 | 0.00 | 0.00 | 88 | 1007.5 |
| 20260506122904 | 3 | 216 | 0.0 | 0.0 | 0.00 | 0.00 | 0.00 | 88 | 1007.5 |
| 20260506122404 | 3 | 216 | 0.0 | 0.0 | 0.00 | 0.00 | 0.00 | 88 | 1007.5 |
| 20260506121903 | 3 | 216 | 0.0 | 0.0 | 0.00 | 0.00 | 0.00 | 89 | 1007.4 |
| 20260506121403 | 3 | 216 | 0.0 | 0.0 | 0.00 | 0.00 | 0.00 | 89 | 1007.3 |
| 20260506120903 | 3 | 216 | 0.0 | 0.0 | 0.00 | 0.00 | 0.00 | 89 | 1007.3 |
| 20260506120404 | 3 | 216 | 0.0 | 0.0 | 0.00 | 0.00 | 0.00 | 89 | 1007.2 |
| 20260506115904 | 3 | 216 | 0.0 | 0.0 | 0.00 | 0.00 | 0.00 | 88 | 1007.1 |
| 20260506115403 | 3 | 216 | 0.0 | 0.0 | 0.00 | 0.00 | 0.00 | 88 | 1007.1 |
| 20260506114904 | 3 | 216 | 0.0 | 0.0 | 0.00 | 0.00 | 0.00 | 88 | 1007.0 |
| 20260506114404 | 3 | 216 | 0.0 | 0.0 | 0.00 | 0.00 | 0.00 | 88 | 1007.0 |
| 20260506113904 | 4 | 216 | 0.0 | 0.0 | 0.00 | 0.00 | 0.00 | 88 | 1007.0 |
| 20260506113403 | 4 | 216 | 0.0 | 0.0 | 0.00 | 0.00 | 0.00 | 88 | 1007.0 |
| 20260506112904 | 4 | 216 | 0.0 | 0.0 | 0.00 | 0.00 | 0.00 | 88 | 1006.9 |
| 20260506112404 | 4 | 216 | 0.0 | 0.0 | 0.00 | 0.00 | 0.00 | 88 | 1006.8 |
| 20260506111904 | 4 | 216 | 0.0 | 0.0 | 0.00 | 0.00 | 0.00 | 88 | 1006.8 |
| 20260506111404 | 4 | 216 | 0.0 | 0.0 | 0.00 | 0.00 | 0.00 | 88 | 1006.7 |
| 20260506110903 | 4 | 216 | 0.0 | 0.0 | 0.00 | 0.00 | 0.00 | 88 | 1006.6 |
| 20260506105904 | 4 | 216 | 0.0 | 0.0 | 0.00 | 0.00 | 0.00 | 88 | 1006.5 |
| 20260506105403 | 4 | 216 | 0.0 | 1.6 | 0.00 | 0.00 | 0.00 | 88 | 1006.5 |
| 20260506104404 | 4 | 185 | 0.0 | 0.0 | 0.00 | 0.00 | 0.00 | 88 | 1006.3 |
| 20260506103904 | 4 | 185 | 1.6 | 8.0 | 0.00 | 0.00 | 0.00 | 88 | 1006.3 |
| 20260506103404 | 4 | 186 | 0.0 | 0.0 | 0.00 | 0.00 | 0.00 | 87 | 1006.2 |
| 20260506102904 | 4 | 186 | 0.0 | 0.0 | 0.00 | 0.00 | 0.00 | 87 | 1006.2 |
| 20260506102403 | 4 | 186 | 0.0 | 0.0 | 0.00 | 0.00 | 0.00 | 86 | 1006.1 |
| 20260506101404 | 4 | 186 | 0.0 | 0.0 | 0.00 | 0.00 | 0.00 | 86 | 1006.0 |
| 20260506100904 | 4 | 186 | 0.0 | 1.6 | 0.00 | 0.00 | 0.00 | 86 | 1005.8 |
| 20260506100404 | 4 | 150 | 0.0 | 0.0 | 0.00 | 0.00 | 0.00 | 85 | 1005.7 |
| 20260506095903 | 5 | 150 | 0.0 | 1.6 | 0.00 | 0.00 | 0.00 | 85 | 1005.7 |
| 20260506095403 | 5 | 188 | 0.0 | 0.0 | 0.00 | 0.00 | 0.00 | 85 | 1005.6 |
| 20260506094904 | 5 | 205 | 0.0 | 0.0 | 0.00 | 0.00 | 0.00 | 85 | 1005.5 |
| 20260506094403 | 5 | 205 | 0.0 | 0.0 | 0.00 | 0.00 | 0.00 | 84 | 1005.5 |
| 20260506093403 | 5 | 205 | 0.0 | 0.0 | 0.00 | 0.00 | 0.00 | 84 | 1005.4 |
| 20260506092904 | 5 | 205 | 0.0 | 0.0 | 0.00 | 0.00 | 0.00 | 84 | 1005.3 |
| 20260506092404 | 5 | 205 | 0.0 | 0.0 | 0.00 | 0.00 | 0.00 | 84 | 1005.2 |
| 20260506091903 | 5 | 205 | 0.0 | 0.0 | 0.00 | 0.00 | 0.00 | 83 | 1005.2 |
| 20260506091403 | 5 | 205 | 0.0 | 0.0 | 0.00 | 0.00 | 0.00 | 83 | 1005.1 |
| 20260506090904 | 5 | 205 | 0.0 | 0.0 | 0.00 | 0.00 | 0.00 | 83 | 1005.1 |
| 20260506090404 | 5 | 205 | 0.0 | 0.0 | 0.00 | 0.00 | 0.00 | 83 | 1005.0 |
| 20260506085404 | 5 | 205 | 0.0 | 0.0 | 0.00 | 0.00 | 0.00 | 82 | 1005.0 |
| 20260506084904 | 5 | 205 | 0.0 | 0.0 | 0.00 | 0.00 | 0.00 | 82 | 1004.9 |
| 20260506084404 | 5 | 205 | 0.0 | 0.0 | 0.00 | 0.00 | 0.00 | 83 | 1004.9 |
| 20260506082903 | 6 | 205 | 0.0 | 0.0 | 0.00 | 0.00 | 0.00 | 81 | 1004.8 |
| 20260506081403 | 6 | 205 | 0.0 | 0.0 | 0.00 | 0.00 | 0.00 | 80 | 1004.5 |
| 20260506080903 | 6 | 205 | 0.0 | 0.0 | 0.00 | 0.00 | 0.00 | 81 | 1004.4 |
| 20260506080403 | 6 | 205 | 0.0 | 0.0 | 0.00 | 0.00 | 0.00 | 80 | 1004.3 |